Aérodrome :
LOGIN :

S'inscrire | Disclaimer

   EN    FR    IT 

 










Légende :    VFR   VFR Marginal   IFR   IFR Intensif   IFR Très Intensif
Visi : 
Plafond : 
>= 8 km
>= 3000ft
5 à 8 km
1000 à 3000 ft
1500m à 5 km
500 à 1000 ft
800 à 1500m
200 à 500 ft
< 800m
< 200 ft
Symboles :   Orages  Brouillard  Fortes neiges  Fortes précipitations  Vent > 20 kt
SIGMETs :   Divers  Orages  Givrage  Turbulence  Onde Orograph.  Cendres Volcan.







- Altitude de l'aérodrome : 47 ft
- Code IATA : BMA


ESSB - Stockholm-Bromma

DERNIER METAR :
  • 210750Z 22007KT 190V260 CAVOK 17/12 Q1021

METARs EXPIRÉS :
  • 210720Z 21007KT CAVOK 17/12 Q1021
  • 210650Z 20005KT CAVOK 16/13 Q1021
  • 210620Z 21005KT 180V240 CAVOK 15/13 Q1021
  • 210550Z 22004KT 190V280 CAVOK 15/13 Q1021
  • 210520Z 19004KT CAVOK 14/12 Q1020

TAF TAF ESSB
Valide du 21 à 06h jusqu'au 21 à 15h UTC


210530Z 2106/2115 21005KT CAVOK
PROB40 2113/2115 SCT040TCU
Pas de NOTAMs connus pour ce terrain.



MET'MAP, la Météo Aéronautique d'un coup d'oeil ! - Copyright ORBIFLY Décembre 2007 - Disclaimer

ORBIFLY MET'MAP TEAM :

Programmation & Développement : Alexandra Zaïnal
Conception & Développement : Baudouin d'Aumeries
Co-Programmation & Développement : Marc-Olivier Méhu
Soutien technique & logistique : Manuel Goepfert

Contact : metmap@orbifly.com




SOURCES & CREDITS :

   NOAA